createdAt,value
2018-11-21T00:01:18.348Z,45.80
2018-11-21T00:04:06.224Z,40.43
2018-11-21T00:06:53.886Z,43.07
2018-11-21T00:09:41.637Z,46.20
2018-11-21T00:12:29.367Z,42.60
2018-11-21T00:15:17.083Z,42.17
2018-11-21T00:18:04.751Z,47.53
2018-11-21T00:20:53.265Z,42.55
2018-11-21T00:23:41.769Z,42.57
2018-11-21T00:26:29.470Z,42.90
2018-11-21T00:29:17.247Z,41.00
2018-11-21T00:32:04.934Z,44.63
2018-11-21T00:37:47.556Z,40.83
2018-11-21T00:40:35.281Z,43.13
2018-11-21T00:46:31.878Z,38.30
2018-11-21T00:49:19.680Z,41.23
2018-11-21T00:52:07.346Z,48.53
2018-11-21T00:54:55.970Z,45.47
2018-11-21T00:57:43.637Z,40.37
2018-11-21T01:00:31.365Z,44.70
2018-11-21T01:03:19.102Z,41.00
2018-11-21T01:06:06.800Z,45.97
2018-11-21T01:08:54.544Z,49.87
2018-11-21T01:11:42.230Z,42.77
2018-11-21T01:14:29.916Z,48.87
2018-11-21T01:17:17.870Z,49.73
2018-11-21T01:20:06.271Z,40.93
2018-11-21T01:22:54.044Z,41.07
2018-11-21T01:25:42.295Z,44.17
2018-11-21T01:28:10.586Z,49.00
2018-11-21T01:30:38.844Z,45.07
2018-11-21T01:33:09.745Z,47.33
2018-11-21T01:35:35.447Z,44.23
2018-11-21T01:38:23.146Z,42.67
2018-11-21T01:40:51.418Z,45.43
2018-11-21T01:43:39.105Z,37.38
2018-11-21T01:46:26.812Z,44.23
2018-11-21T01:49:14.485Z,45.57
2018-11-21T01:52:02.218Z,44.03
2018-11-21T01:54:50.094Z,38.27
2018-11-21T01:57:37.737Z,42.50
2018-11-21T02:00:25.431Z,47.15
2018-11-21T02:03:13.079Z,39.10
2018-11-21T02:06:00.867Z,40.97
2018-11-21T02:08:48.539Z,42.33
2018-11-21T02:11:36.326Z,43.60
2018-11-21T02:14:23.945Z,39.67
2018-11-21T02:17:11.688Z,39.43
2018-11-21T02:19:59.438Z,40.23
2018-11-21T02:22:47.569Z,43.07
2018-11-21T02:25:35.297Z,41.63
2018-11-21T02:28:22.973Z,39.75
2018-11-21T02:34:17.892Z,41.60
2018-11-21T02:37:05.650Z,39.93
2018-11-21T02:39:53.355Z,35.43
2018-11-21T02:42:41.062Z,39.27
2018-11-21T02:45:28.849Z,42.53
2018-11-21T02:48:16.562Z,37.87
2018-11-21T02:51:04.695Z,41.90
2018-11-21T02:53:52.344Z,40.30
2018-11-21T02:56:59.469Z,38.40
2018-11-21T02:59:47.450Z,43.17
2018-11-21T03:02:35.133Z,37.50
2018-11-21T03:05:22.900Z,42.07
2018-11-21T03:08:10.933Z,42.40
2018-11-21T03:10:58.602Z,37.30
2018-11-21T03:13:46.321Z,42.88
2018-11-21T03:16:34.967Z,35.50
2018-11-21T03:19:22.650Z,42.30
2018-11-21T03:22:10.482Z,40.75
2018-11-21T03:24:58.256Z,39.50
2018-11-21T03:27:46.015Z,41.83
2018-11-21T03:30:33.797Z,40.93
2018-11-21T03:33:21.557Z,39.60
2018-11-21T03:36:09.267Z,38.55
2018-11-21T03:38:56.988Z,41.10
2018-11-21T03:41:44.946Z,39.65
2018-11-21T03:44:32.702Z,39.98
2018-11-21T03:47:20.585Z,37.93
2018-11-21T03:50:08.836Z,40.48
2018-11-21T03:52:56.546Z,41.73
2018-11-21T03:55:44.331Z,39.90
2018-11-21T03:58:32.038Z,47.17
2018-11-21T04:01:19.826Z,38.90
2018-11-21T04:04:08.388Z,39.57
2018-11-21T04:06:56.103Z,38.45
2018-11-21T04:09:43.926Z,40.87
2018-11-21T04:12:31.695Z,42.03
2018-11-21T04:15:19.532Z,42.33
2018-11-21T04:18:07.180Z,44.73
2018-11-21T04:20:54.967Z,42.90
2018-11-21T04:23:42.696Z,42.80
2018-11-21T04:26:30.409Z,42.80
2018-11-21T04:29:18.182Z,46.13
2018-11-21T04:32:05.916Z,40.43
2018-11-21T04:34:53.892Z,40.23
2018-11-21T04:37:41.696Z,44.17
2018-11-21T04:40:29.426Z,44.53
2018-11-21T04:43:17.225Z,44.93
2018-11-21T04:46:05.081Z,41.08
2018-11-21T04:48:52.810Z,39.87
2018-11-21T04:51:40.772Z,42.70
2018-11-21T04:54:28.539Z,44.50
2018-11-21T04:57:16.245Z,45.15
2018-11-21T05:00:04.887Z,38.78
2018-11-21T05:02:52.550Z,42.58
2018-11-21T05:05:40.228Z,42.48
2018-11-21T05:08:28.177Z,44.45
2018-11-21T05:11:15.859Z,43.60
2018-11-21T05:14:03.773Z,43.98
2018-11-21T05:16:51.465Z,42.40
2018-11-21T05:19:39.153Z,45.78
2018-11-21T05:22:26.856Z,39.00
2018-11-21T05:25:14.857Z,43.08
2018-11-21T05:28:02.342Z,37.95
2018-11-21T05:30:50.050Z,43.70
2018-11-21T05:33:37.753Z,42.50
2018-11-21T05:36:25.737Z,41.18
2018-11-21T05:39:13.583Z,49.95
2018-11-21T05:42:01.290Z,39.95
2018-11-21T05:44:49.124Z,36.80
2018-11-21T05:47:36.966Z,42.62
2018-11-21T05:50:24.632Z,40.80
2018-11-21T05:53:12.448Z,42.50
2018-11-21T05:56:00.115Z,41.45
2018-11-21T06:01:54.917Z,48.28
2018-11-21T06:04:42.643Z,39.92
2018-11-21T06:07:30.311Z,45.58
2018-11-21T06:10:17.998Z,38.02
2018-11-21T06:13:05.676Z,43.33
2018-11-21T06:15:53.328Z,44.20
2018-11-21T06:18:41.019Z,46.20
2018-11-21T06:21:28.717Z,39.53
2018-11-21T06:24:16.513Z,40.60
2018-11-21T06:27:04.368Z,40.95
2018-11-21T06:29:52.177Z,34.92
2018-11-21T06:32:40.009Z,40.17
2018-11-21T06:35:27.687Z,37.95
2018-11-21T06:38:15.813Z,42.97
2018-11-21T06:41:03.564Z,41.85
2018-11-21T06:43:52.053Z,41.50
2018-11-21T06:46:39.875Z,40.12
2018-11-21T06:49:27.621Z,47.13
2018-11-21T06:52:21.941Z,43.30
2018-11-21T06:55:03.328Z,42.35
2018-11-21T06:57:51.152Z,42.33
2018-11-21T07:00:38.849Z,43.13
2018-11-21T07:03:26.525Z,43.78
2018-11-21T07:06:14.247Z,38.95
2018-11-21T07:09:01.951Z,42.27
2018-11-21T07:11:49.687Z,50.10
2018-11-21T07:14:37.404Z,38.65
2018-11-21T07:17:25.153Z,44.73
2018-11-21T07:20:13.523Z,43.38
2018-11-21T07:23:01.903Z,43.23
2018-11-21T07:25:50.547Z,39.85
2018-11-21T07:28:38.250Z,48.13
2018-11-21T07:31:25.905Z,38.73
2018-11-21T07:34:13.599Z,46.05
2018-11-21T07:37:01.271Z,40.78
2018-11-21T07:39:48.948Z,45.85
2018-11-21T07:42:17.214Z,41.50
2018-11-21T07:45:05.754Z,41.65
2018-11-21T07:47:34.071Z,41.58
2018-11-21T07:50:22.142Z,43.55
2018-11-21T07:52:50.400Z,39.95
2018-11-21T07:55:38.110Z,42.17
2018-11-21T07:58:27.572Z,43.68
2018-11-21T08:01:34.420Z,43.95
2018-11-21T08:07:43.603Z,38.83
2018-11-21T08:10:50.457Z,41.18
2018-11-21T08:13:57.499Z,40.38
2018-11-21T08:17:04.485Z,40.17
2018-11-21T08:20:11.336Z,42.08
2018-11-21T08:23:18.368Z,38.42
2018-11-21T08:26:14.984Z,41.10
2018-11-21T08:29:03.104Z,41.58
2018-11-21T08:31:50.853Z,43.08
2018-11-21T08:34:38.606Z,39.23
2018-11-21T08:37:26.262Z,41.58
2018-11-21T08:40:14.020Z,46.68
2018-11-21T08:43:01.702Z,40.40
2018-11-21T08:45:42.144Z,42.15
2018-11-21T08:48:23.158Z,37.50
2018-11-21T08:51:03.843Z,40.33
2018-11-21T08:59:24.544Z,38.70
2018-11-21T09:02:05.803Z,40.88
2018-11-21T09:04:46.623Z,37.53
2018-11-21T09:07:27.094Z,42.48
2018-11-21T09:10:07.611Z,36.95
2018-11-21T09:12:48.494Z,37.93
2018-11-21T09:15:28.723Z,36.33
2018-11-21T09:18:09.225Z,45.03
2018-11-21T09:20:49.761Z,36.58
2018-11-21T09:23:30.863Z,33.85
2018-11-21T09:26:11.940Z,34.43
2018-11-21T09:28:52.406Z,37.78
2018-11-21T09:31:33.567Z,37.15
2018-11-21T09:34:14.324Z,37.53
2018-11-21T09:36:55.136Z,37.95
2018-11-21T09:39:36.212Z,35.63
2018-11-21T09:42:17.338Z,37.63
2018-11-21T09:44:57.953Z,35.68
2018-11-21T09:47:40.026Z,40.65
2018-11-21T09:50:38.784Z,39.25
2018-11-21T09:53:19.090Z,36.77
2018-11-21T09:56:00.156Z,34.90
2018-11-21T09:58:40.638Z,36.53
2018-11-21T10:04:34.546Z,36.28
2018-11-21T10:07:14.992Z,34.38
2018-11-21T10:09:55.811Z,33.45
2018-11-21T10:12:36.862Z,36.35
2018-11-21T10:15:05.799Z,33.35
2018-11-21T10:17:34.322Z,35.45
2018-11-21T10:20:02.657Z,36.08
2018-11-21T10:22:50.496Z,38.15
2018-11-21T10:25:38.234Z,32.70
2018-11-21T10:28:26.799Z,34.88
2018-11-21T10:31:17.683Z,32.73
2018-11-21T10:34:05.418Z,35.10
2018-11-21T10:36:53.213Z,37.35
2018-11-21T10:39:43.603Z,33.95
2018-11-21T10:42:31.279Z,38.42
2018-11-21T10:45:19.081Z,34.27
2018-11-21T10:48:07.080Z,41.00
2018-11-21T10:50:54.809Z,38.45
2018-11-21T10:53:42.508Z,35.58
2018-11-21T10:59:23.553Z,33.63
2018-11-21T11:02:30.440Z,37.73
2018-11-21T11:05:37.276Z,33.05
2018-11-21T11:08:44.170Z,30.43
2018-11-21T11:11:51.050Z,33.85
2018-11-21T11:14:57.947Z,28.47
2018-11-21T11:18:04.804Z,28.40
2018-11-21T11:21:11.786Z,26.73
2018-11-21T11:24:18.630Z,28.57
2018-11-21T11:27:25.451Z,29.27
2018-11-21T11:30:27.377Z,26.97
2018-11-21T11:33:34.276Z,27.50
2018-11-21T11:36:41.163Z,27.13
2018-11-21T11:39:39.820Z,27.32
2018-11-21T11:43:06.129Z,27.65
2018-11-21T11:46:08.033Z,24.85
2018-11-21T11:49:14.904Z,29.70
2018-11-21T11:52:21.896Z,26.52
2018-11-21T11:55:28.840Z,35.90
2018-11-21T11:58:35.737Z,25.57
2018-11-21T12:01:42.580Z,22.30
2018-11-21T12:04:49.479Z,24.87
2018-11-21T12:07:56.334Z,24.10
2018-11-21T12:11:03.446Z,26.57
2018-11-21T12:14:10.324Z,24.40
2018-11-21T12:17:17.174Z,22.10
2018-11-21T12:20:18.634Z,24.27
2018-11-21T12:23:25.530Z,26.85
2018-11-21T12:26:32.515Z,22.98
2018-11-21T12:29:41.882Z,26.48
2018-11-21T12:32:46.304Z,32.35
2018-11-21T12:35:53.175Z,24.47
2018-11-21T12:39:00.102Z,24.85
2018-11-21T12:42:07.035Z,23.57
2018-11-21T12:44:54.482Z,23.73
2018-11-21T12:47:48.893Z,25.25
2018-11-21T12:50:55.814Z,21.70
2018-11-21T12:54:02.697Z,30.35
2018-11-21T12:57:09.544Z,23.98
2018-11-21T13:00:16.402Z,28.12
2018-11-21T13:03:09.146Z,25.65
2018-11-21T13:06:16.771Z,29.95
2018-11-21T13:09:26.113Z,29.55
2018-11-21T13:12:33.033Z,27.58
2018-11-21T13:15:43.492Z,25.15
2018-11-21T13:18:46.810Z,26.97
2018-11-21T13:21:53.714Z,27.10
2018-11-21T13:25:00.606Z,25.88
2018-11-21T13:28:07.683Z,26.02
2018-11-21T13:31:14.591Z,27.52
2018-11-21T13:34:21.473Z,30.62
2018-11-21T13:37:20.455Z,27.93
2018-11-21T13:40:27.988Z,30.12
2018-11-21T13:43:34.848Z,33.67
2018-11-21T13:46:41.779Z,29.87
2018-11-21T13:49:48.632Z,31.40
2018-11-21T13:52:48.973Z,27.90
2018-11-21T13:55:36.708Z,31.55
2018-11-21T13:58:06.465Z,27.77
2018-11-21T14:00:35.666Z,23.60
2018-11-21T14:03:04.006Z,22.52
2018-11-21T14:05:32.254Z,24.63
2018-11-21T14:08:00.560Z,22.40
2018-11-21T14:10:29.255Z,20.15
2018-11-21T14:12:57.833Z,22.87
2018-11-21T14:15:26.231Z,23.10
2018-11-21T14:17:54.494Z,22.32
2018-11-21T14:20:22.720Z,22.77
2018-11-21T14:22:50.993Z,22.25
2018-11-21T14:25:19.589Z,24.50
2018-11-21T14:27:47.908Z,21.77
2018-11-21T14:30:16.836Z,23.77
2018-11-21T14:32:45.306Z,21.45
2018-11-21T14:35:15.045Z,21.73
2018-11-21T14:37:44.409Z,27.48
2018-11-21T14:40:15.175Z,24.85
2018-11-21T14:42:43.466Z,28.20
2018-11-21T14:45:16.347Z,32.53
2018-11-21T14:47:46.313Z,37.28
2018-11-21T14:50:28.369Z,36.03
2018-11-21T14:52:56.661Z,44.10
2018-11-21T14:55:24.959Z,43.02
2018-11-21T14:57:53.153Z,44.27
2018-11-21T15:00:22.904Z,48.35
2018-11-21T15:02:50.973Z,47.20
2018-11-21T15:05:19.265Z,47.62
2018-11-21T15:07:48.017Z,47.98
2018-11-21T15:10:16.427Z,52.53
2018-11-21T15:12:44.769Z,44.58
2018-11-21T15:15:15.366Z,48.65
2018-11-21T15:17:43.761Z,53.70
2018-11-21T15:20:17.369Z,51.77
2018-11-21T15:22:47.579Z,49.55
2018-11-21T15:25:17.779Z,49.40
2018-11-21T15:27:46.255Z,51.98
2018-11-21T15:30:18.224Z,50.92
2018-11-21T15:32:49.044Z,52.00
2018-11-21T15:35:17.715Z,49.23
2018-11-21T15:37:46.454Z,50.98
2018-11-21T15:40:16.165Z,52.30
2018-11-21T15:42:44.455Z,52.85
2018-11-21T15:45:15.096Z,47.48
2018-11-21T15:47:45.127Z,46.37
2018-11-21T15:50:14.618Z,45.92
2018-11-21T15:52:43.431Z,46.60
2018-11-21T15:55:13.168Z,53.87
2018-11-21T15:57:41.436Z,51.42
2018-11-21T16:00:17.864Z,45.80
2018-11-21T16:02:47.105Z,51.40
2018-11-21T16:05:15.966Z,46.10
2018-11-21T16:07:44.240Z,51.02
2018-11-21T16:10:18.512Z,47.67
2018-11-21T16:12:45.567Z,51.70
2018-11-21T16:15:16.617Z,45.08
2018-11-21T16:17:44.880Z,44.25
2018-11-21T16:20:14.499Z,44.98
2018-11-21T16:22:42.837Z,48.30
2018-11-21T16:25:12.908Z,43.05
2018-11-21T16:27:41.819Z,45.60
2018-11-21T16:30:15.328Z,43.55
2018-11-21T16:32:43.873Z,44.58
2018-11-21T16:35:12.586Z,46.48
2018-11-21T16:37:41.346Z,45.08
2018-11-21T16:40:15.807Z,48.02
2018-11-21T16:42:44.124Z,45.58
2018-11-21T16:45:14.460Z,49.50
2018-11-21T16:47:42.830Z,44.45
2018-11-21T16:50:13.490Z,47.45
2018-11-21T16:52:41.819Z,63.23
2018-11-21T16:55:11.962Z,63.55
2018-11-21T16:57:40.280Z,61.55
2018-11-21T17:00:14.078Z,73.65
2018-11-21T17:02:42.340Z,60.60
2018-11-21T17:05:12.339Z,58.73
2018-11-21T17:07:41.033Z,59.70
2018-11-21T17:10:11.356Z,60.85
2018-11-21T17:12:39.835Z,51.68
2018-11-21T17:15:10.258Z,52.85
2018-11-21T17:17:38.784Z,52.55
2018-11-21T17:20:13.917Z,49.55
2018-11-21T17:22:42.150Z,51.63
2018-11-21T17:25:13.107Z,53.20
2018-11-21T17:27:42.232Z,55.08
2018-11-21T17:30:12.197Z,50.65
2018-11-21T17:32:40.580Z,48.28
2018-11-21T17:35:10.234Z,49.38
2018-11-21T17:37:38.594Z,50.20
2018-11-21T17:40:12.683Z,54.20
2018-11-21T17:42:41.121Z,52.33
2018-11-21T17:45:10.495Z,59.55
2018-11-21T17:47:38.823Z,61.15
2018-11-21T17:50:12.894Z,56.95
2018-11-21T17:52:41.196Z,55.38
2018-11-21T17:55:11.771Z,59.48
2018-11-21T17:57:40.180Z,56.80
2018-11-21T18:00:13.564Z,57.83
2018-11-21T18:02:42.041Z,64.30
2018-11-21T18:05:11.428Z,58.42
2018-11-21T18:07:39.716Z,63.87
2018-11-21T18:10:10.405Z,64.75
2018-11-21T18:12:43.669Z,65.15
2018-11-21T18:15:18.760Z,67.25
2018-11-21T18:17:48.068Z,66.37
2018-11-21T18:20:46.855Z,60.30
2018-11-21T18:23:19.747Z,73.72
2018-11-21T18:25:48.218Z,69.03
2018-11-21T18:28:16.664Z,67.60
2018-11-21T18:30:44.977Z,65.92
2018-11-21T18:33:13.749Z,68.17
2018-11-21T18:35:42.000Z,67.42
2018-11-21T18:38:11.370Z,71.85
2018-11-21T18:40:39.767Z,69.15
2018-11-21T18:43:08.305Z,72.15
2018-11-21T18:45:38.609Z,68.75
2018-11-21T18:48:07.230Z,63.42
2018-11-21T18:50:35.512Z,67.15
2018-11-21T18:53:05.341Z,70.62
2018-11-21T18:55:36.302Z,74.40
2018-11-21T18:58:14.520Z,66.75
2018-11-21T19:00:44.800Z,72.80
2018-11-21T19:03:13.339Z,71.43
2018-11-21T19:05:41.920Z,75.78
2018-11-21T19:08:10.491Z,71.40
2018-11-21T19:10:39.016Z,73.80
2018-11-21T19:13:07.673Z,70.83
2018-11-21T19:15:36.189Z,65.95
2018-11-21T19:18:04.758Z,70.03
2018-11-21T19:20:33.339Z,71.67
2018-11-21T19:23:01.904Z,61.60
2018-11-21T19:25:31.239Z,63.75
2018-11-21T19:28:10.634Z,68.67
2018-11-21T19:30:39.203Z,64.03
2018-11-21T19:33:07.772Z,66.10
2018-11-21T19:35:36.333Z,67.87
2018-11-21T19:38:06.010Z,62.45
2018-11-21T19:40:34.613Z,69.12
2018-11-21T19:43:03.200Z,64.35
2018-11-21T19:45:31.897Z,65.75
2018-11-21T19:48:04.686Z,62.65
2018-11-21T19:50:34.216Z,66.17
2018-11-21T19:53:03.041Z,62.08
2018-11-21T19:55:32.875Z,70.15
2018-11-21T19:58:02.355Z,71.12
2018-11-21T20:00:32.530Z,67.80
2018-11-21T20:03:01.592Z,63.28
2018-11-21T20:05:32.391Z,66.17
2018-11-21T20:08:01.031Z,66.72
2018-11-21T20:10:29.578Z,66.87
2018-11-21T20:12:58.129Z,67.65
2018-11-21T20:15:27.770Z,64.75
2018-11-21T20:17:58.225Z,62.33
2018-11-21T20:20:26.917Z,61.40
2018-11-21T20:22:55.246Z,69.75
2018-11-21T20:25:24.794Z,65.15
2018-11-21T20:27:53.262Z,62.38
2018-11-21T20:30:29.287Z,73.17
2018-11-21T20:32:57.554Z,69.92
2018-11-21T20:35:29.034Z,64.25
2018-11-21T20:37:57.354Z,65.37
2018-11-21T20:40:27.635Z,68.17
2018-11-21T20:42:56.084Z,61.37
2018-11-21T20:45:26.070Z,67.27
2018-11-21T20:47:55.119Z,67.60
2018-11-21T20:50:23.454Z,66.00
2018-11-21T20:52:51.734Z,69.32
2018-11-21T20:55:21.852Z,67.42
2018-11-21T20:57:50.135Z,66.92
2018-11-21T21:00:23.640Z,67.58
2018-11-21T21:02:51.963Z,65.80
2018-11-21T21:05:21.740Z,69.92
2018-11-21T21:07:50.025Z,64.35
2018-11-21T21:10:22.792Z,64.77
2018-11-21T21:12:51.070Z,72.30
2018-11-21T21:15:19.321Z,67.92
2018-11-21T21:17:48.332Z,68.15
2018-11-21T21:20:18.100Z,58.28
2018-11-21T21:22:47.362Z,61.70
2018-11-21T21:25:17.525Z,71.65
2018-11-21T21:27:45.923Z,57.15
2018-11-21T21:30:16.126Z,64.27
2018-11-21T21:32:45.203Z,64.25
2018-11-21T21:35:14.140Z,64.55
2018-11-21T21:37:42.902Z,63.73
2018-11-21T21:40:13.307Z,62.00
2018-11-21T21:42:41.954Z,64.95
2018-11-21T21:45:12.420Z,65.32
2018-11-21T21:47:41.680Z,71.47
2018-11-21T21:50:10.261Z,64.30
2018-11-21T21:52:38.538Z,56.48
2018-11-21T21:55:08.117Z,64.58
2018-11-21T21:57:36.479Z,65.08
2018-11-21T22:00:08.461Z,66.22
2018-11-21T22:02:36.796Z,67.12
2018-11-21T22:05:06.857Z,65.83
2018-11-21T22:07:35.200Z,67.15
2018-11-21T22:10:03.440Z,68.52
2018-11-21T22:12:31.729Z,62.53
2018-11-21T22:15:00.071Z,63.50
2018-11-21T22:17:28.773Z,60.63
2018-11-21T22:19:57.243Z,66.67
